Fourth Quarter — WDG3250 — position and weather

sailwx.info

Track history (hours):
 
Tides and Currents Weather Stations Pressure Air Temp Water Temp Dewpoint Dewpoint Depression Visibility Wind Speed Wind Dir Waves Ship Positions

Fourth Quarter

Owner: Kathryn Rae Towing, Inc., Destrehan, LA. More information available from US FCC via Universal Licensing System and Coast Guard Vessel Documentation Center.

Last reported at 2016-May-21 12:19 UTC. Time now 2016-May-24 23:24 UTC.
Position N 29°57' W 090°24'.

Length 21 m; draft 2.7 m.

Type: Towing. MMSI: 367524080.

Date/timePositionNaut miles runAvg speedWind from/ knotsBaromVisibWave heightAir tempDewpointWater temp
2016-May-21 12:19N 29°57' W 090°24'8 4.4
2016-May-21 10:30N 29°58' W 090°14'0 0.0
2016-May-21 09:33N 29°58' W 090°14'3 3.3
2016-May-21 08:33N 29°56' W 090°11'4 4.2
2016-May-21 07:33N 29°55' W 090°07'5 5.1
2016-May-21 06:33N 29°57' W 090°01'3 3.3
2016-May-21 05:33N 29°55' W 089°58'3 2.7
2016-May-21 04:33N 29°53' W 090°00'5 4.9
2016-May-21 03:33N 29°49' W 090°04'3 3.2
2016-May-21 02:33N 29°52' W 090°04'2 2.1
2016-May-21 01:33N 29°54' W 090°05'0 0.0
2016-May-21 00:33N 29°54' W 090°05'0 0.0
2016-May-20 23:33N 29°54' W 090°05'0 0.0
2016-May-20 22:33N 29°54' W 090°05'0 0.0
2016-May-20 21:33N 29°54' W 090°05'0 0.0
2016-May-20 20:33N 29°54' W 090°05'0 0.0
2016-May-20 19:28N 29°54' W 090°05'0 0.0
2016-May-20 18:33N 29°54' W 090°05'0 0.0
2016-May-20 17:33N 29°54' W 090°05'0 0.0
2016-May-20 15:31N 29°54' W 090°05'0 0.0
2016-May-20 14:33N 29°54' W 090°05'0 0.0
2016-May-20 13:33N 29°54' W 090°05'0 0.0
2016-May-20 12:33N 29°54' W 090°05'0 0.0
2016-May-20 11:33N 29°54' W 090°05'0 0.0
2016-May-20 10:33N 29°54' W 090°05'0 0.0
2016-May-20 09:33N 29°54' W 090°05'0 0.0
2016-May-20 08:33N 29°54' W 090°05'0 0.0
2016-May-20 07:33N 29°54' W 090°05'0 0.0
2016-May-20 06:33N 29°54' W 090°05'0 0.0
2016-May-20 05:33N 29°54' W 090°05'0 0.0
2016-May-20 03:33N 29°54' W 090°05'0 0.0
2016-May-20 02:33N 29°54' W 090°05'0 0.0
2016-May-20 01:33N 29°54' W 090°05'0 0.0
2016-May-20 00:33N 29°54' W 090°05'0 0.0
2016-May-19 23:33N 29°54' W 090°05'0 0.0
2016-May-19 22:33N 29°54' W 090°05'0 0.0
2016-May-19 21:33N 29°54' W 090°05'0 0.0
2016-May-19 20:33N 29°54' W 090°05'0 0.0
2016-May-19 19:33N 29°54' W 090°05'0 0.0
2016-May-19 18:33N 29°54' W 090°05'0 0.0
2016-May-19 17:33N 29°54' W 090°05'0 0.0
2016-May-19 16:34N 29°54' W 090°05'0 0.0
2016-May-19 15:33N 29°54' W 090°05'0 0.0
2016-May-19 14:33N 29°54' W 090°05'0 0.0
2016-May-19 13:34N 29°54' W 090°05'0 0.0
2016-May-19 12:33N 29°54' W 090°05'0 0.0
2016-May-19 11:33N 29°54' W 090°05'0 0.0
2016-May-19 10:33N 29°54' W 090°05'0 0.0
2016-May-19 09:33N 29°54' W 090°05'0 0.0
2016-May-19 08:33N 29°54' W 090°05'0 0.0
2016-May-19 07:33N 29°54' W 090°05'0 0.0
2016-May-19 06:33N 29°54' W 090°05'0 0.0
2016-May-19 05:33N 29°54' W 090°05'0 0.0
2016-May-19 04:33N 29°54' W 090°05'0 0.0
2016-May-19 03:33N 29°54' W 090°05'0 0.0
2016-May-19 02:33N 29°54' W 090°05'0 0.0
2016-May-19 01:33N 29°54' W 090°05'0 0.0
2016-May-19 00:33N 29°54' W 090°05'0 0.0
2016-May-18 23:33N 29°54' W 090°05'0 0.0
2016-May-18 22:33N 29°54' W 090°05'0 0.0
2016-May-18 21:33N 29°54' W 090°05'0 0.0
2016-May-18 20:33N 29°54' W 090°05'0 0.0
2016-May-18 19:33N 29°54' W 090°05'0 0.0
2016-May-18 18:33N 29°54' W 090°05'0 0.0
2016-May-18 17:33N 29°54' W 090°05'0 0.0
2016-May-18 16:33N 29°54' W 090°05'0 0.0
2016-May-18 15:33N 29°54' W 090°05'0 0.0
2016-May-18 14:33N 29°54' W 090°05'0 0.0
2016-May-18 13:33N 29°54' W 090°05'0 0.0
2016-May-18 12:33N 29°54' W 090°05'0 0.0
2016-May-18 11:33N 29°54' W 090°05'0 0.0
2016-May-18 10:33N 29°54' W 090°05'0 0.0
2016-May-18 09:33N 29°54' W 090°05'0 0.0
2016-May-18 08:33N 29°54' W 090°05'0 0.0
2016-May-18 07:33N 29°54' W 090°05'0 0.0
2016-May-18 06:33N 29°54' W 090°05'0 0.0
2016-May-18 05:33N 29°54' W 090°05'0 0.0
2016-May-18 04:33N 29°54' W 090°05'0 0.0
2016-May-18 03:33N 29°54' W 090°05'0 0.0
2016-May-18 02:33N 29°54' W 090°05'0 0.0
2016-May-18 01:34N 29°54' W 090°05'0 0.0
2016-May-18 00:33N 29°54' W 090°05'0 0.0
2016-May-17 23:34N 29°54' W 090°05'0 0.0
2016-May-17 22:33N 29°54' W 090°05'0 0.0
2016-May-17 21:33N 29°54' W 090°05'0 0.0
2016-May-17 20:33N 29°54' W 090°05'0 0.0
2016-May-17 19:33N 29°54' W 090°05'0 0.0
2016-May-17 18:33N 29°54' W 090°05'0 0.0
2016-May-17 17:33N 29°54' W 090°05'0 0.0
2016-May-17 16:33N 29°54' W 090°05'0 0.0
2016-May-17 15:33N 29°54' W 090°05'0 0.0
2016-May-17 14:33N 29°54' W 090°05'0 0.0
2016-May-17 13:33N 29°54' W 090°05'0 0.0
2016-May-17 12:33N 29°54' W 090°05'0 0.0
2016-May-17 11:33N 29°54' W 090°05'0 0.0
2016-May-17 10:33N 29°54' W 090°05'0 0.0
2016-May-17 09:33N 29°54' W 090°05'0 0.0
2016-May-17 08:33N 29°54' W 090°05'0 0.0
2016-May-17 07:33N 29°54' W 090°05'0 0.0
2016-May-17 06:34N 29°54' W 090°05'0 0.0
2016-May-17 05:33N 29°54' W 090°05'0 0.0
2016-May-17 04:33N 29°54' W 090°05'0 0.0
2016-May-17 03:33N 29°54' W 090°05'0 0.0
2016-May-17 02:34N 29°54' W 090°05'0 0.0
2016-May-17 01:33N 29°54' W 090°05'0 0.0
2016-May-17 00:33N 29°54' W 090°05'0 0.0
2016-May-16 23:33N 29°54' W 090°05'0 0.0
2016-May-16 22:33N 29°54' W 090°05'0 0.0
2016-May-16 21:33N 29°54' W 090°05'0 0.0
2016-May-16 20:33N 29°54' W 090°05'0 0.0
2016-May-16 19:33N 29°54' W 090°05'0 0.0
2016-May-16 18:33N 29°54' W 090°05'0 0.0
2016-May-16 17:33N 29°54' W 090°05'0 0.0
2016-May-16 16:33N 29°54' W 090°05'0 0.0
2016-May-16 15:33N 29°54' W 090°05'0 0.0
2016-May-16 14:33N 29°54' W 090°05'0 0.0
2016-May-16 13:33N 29°54' W 090°05'0 0.0
2016-May-16 12:33N 29°54' W 090°05'0 0.0
2016-May-16 11:33N 29°54' W 090°05'0 0.0
2016-May-16 10:33N 29°54' W 090°05'0 0.0
2016-May-16 09:33N 29°54' W 090°05'0 0.0
2016-May-16 08:33N 29°54' W 090°05'0 0.0
2016-May-16 07:33N 29°54' W 090°05'0 0.0
2016-May-16 06:33N 29°54' W 090°05'0 0.0
2016-May-16 05:33N 29°54' W 090°05'0 0.0
2016-May-16 04:33N 29°54' W 090°05'0 0.0
2016-May-16 03:33N 29°54' W 090°05'0 0.0
2016-May-16 02:33N 29°54' W 090°05'0 0.0
2016-May-16 01:33N 29°54' W 090°05'0 0.0
2016-May-16 00:33N 29°54' W 090°05'0 0.0
2016-May-15 23:33N 29°54' W 090°05'0 0.0
2016-May-15 22:33N 29°54' W 090°05'0 0.0
2016-May-15 21:33N 29°54' W 090°05'0 0.0
2016-May-15 20:33N 29°54' W 090°05'0 0.0
2016-May-15 19:33N 29°54' W 090°05'0 0.0
2016-May-15 18:33N 29°54' W 090°05'0 0.0
2016-May-15 17:33N 29°54' W 090°05'0 0.0
2016-May-15 16:33N 29°54' W 090°05'0 0.0
2016-May-15 15:33N 29°54' W 090°05'0 0.0
2016-May-15 14:33N 29°54' W 090°05'0 0.0
2016-May-15 13:33N 29°54' W 090°05'0 0.0
2016-May-15 12:33N 29°54' W 090°05'0 0.0
2016-May-15 11:33N 29°54' W 090°05'0 0.0
2016-May-15 10:33N 29°54' W 090°05'0 0.0
2016-May-15 09:33N 29°54' W 090°05'0 0.0
2016-May-15 08:33N 29°54' W 090°05'0 0.0
2016-May-15 07:33N 29°54' W 090°05'0 0.0
2016-May-15 06:33N 29°54' W 090°05'0 0.0
2016-May-15 05:33N 29°54' W 090°05'0 0.0
2016-May-15 04:33N 29°54' W 090°05'0 0.0
2016-May-15 03:33N 29°54' W 090°05'0 0.0
2016-May-15 02:33N 29°54' W 090°05'0 0.0
2016-May-15 01:33N 29°54' W 090°05'0 0.0
2016-May-15 00:33N 29°54' W 090°05'0 0.0
2016-May-14 23:33N 29°54' W 090°05'0 0.0
2016-May-14 22:33N 29°54' W 090°05'0 0.0
2016-May-14 21:33N 29°54' W 090°05'0 0.0
2016-May-14 20:33N 29°54' W 090°05'0 0.0
2016-May-14 19:33N 29°54' W 090°05'0 0.0
2016-May-14 18:34N 29°54' W 090°05'0 0.0
2016-May-14 17:33N 29°54' W 090°05'0 0.0
2016-May-14 16:33N 29°54' W 090°05'0 0.0
2016-May-14 15:33N 29°54' W 090°05'0 0.0
2016-May-14 14:33N 29°54' W 090°05'0 0.0
2016-May-14 13:33N 29°54' W 090°05'0 0.0
2016-May-14 12:33N 29°54' W 090°05'0 0.0
2016-May-14 11:33N 29°54' W 090°05'0 0.0
2016-May-14 10:33N 29°54' W 090°05'0 0.0
2016-May-14 09:33N 29°54' W 090°05'0 0.0
2016-May-14 08:33N 29°54' W 090°05'0 0.0
2016-May-14 07:34N 29°54' W 090°05'0 0.0
2016-May-14 06:33N 29°54' W 090°05'0 0.0
2016-May-14 05:33N 29°54' W 090°05'0 0.0
2016-May-14 04:33N 29°54' W 090°05'0 0.0
2016-May-14 03:33N 29°54' W 090°05'0 0.0
2016-May-14 02:33N 29°54' W 090°05'0 0.0
2016-May-14 01:33N 29°54' W 090°05'0 0.0
2016-May-14 00:33N 29°54' W 090°05'0 0.0
2016-May-13 23:33N 29°54' W 090°05'0 0.0
2016-May-13 22:33N 29°54' W 090°05'0 0.0
2016-May-13 21:33N 29°54' W 090°05'0 0.0
2016-May-13 20:33N 29°54' W 090°05'0 0.0
2016-May-13 19:33N 29°54' W 090°05'0 0.0
2016-May-13 18:34N 29°54' W 090°05'0 0.0
2016-May-13 17:34N 29°54' W 090°05'0 0.0
2016-May-13 16:33N 29°54' W 090°05'0 0.0
2016-May-13 15:33N 29°54' W 090°05'0 0.0
2016-May-13 14:33N 29°54' W 090°05'0 0.0
2016-May-13 13:33N 29°54' W 090°05'0 0.0
2016-May-13 12:33N 29°54' W 090°05'0 0.0
2016-May-13 11:33N 29°54' W 090°05'0 0.0
2016-May-13 10:33N 29°54' W 090°05'0 0.0
2016-May-13 09:33N 29°54' W 090°05'0 0.0
2016-May-13 08:33N 29°54' W 090°05'0 0.0
2016-May-13 07:34N 29°54' W 090°05'0 0.0
2016-May-13 06:33N 29°54' W 090°05'0 0.0
2016-May-13 05:33N 29°54' W 090°05'0 0.0
2016-May-13 04:33N 29°54' W 090°05'0 0.0
2016-May-13 03:33N 29°54' W 090°05'0 0.0
2016-May-13 02:33N 29°54' W 090°05'0 0.0
2016-May-13 01:33N 29°54' W 090°05'0 0.0
2016-May-13 00:33N 29°54' W 090°05'0 0.0
2016-May-12 23:33N 29°54' W 090°05'0 0.0
2016-May-12 22:33N 29°54' W 090°05'0 0.0
2016-May-12 21:33N 29°54' W 090°05'0 0.0
2016-May-12 20:33N 29°54' W 090°05'0 0.0
2016-May-12 19:33N 29°54' W 090°05'0 0.0
2016-May-12 18:33N 29°54' W 090°05'0 0.0
2016-May-12 17:33N 29°54' W 090°05'0 0.0
2016-May-12 16:33N 29°54' W 090°05'0 0.0
2016-May-12 15:34N 29°54' W 090°05'0 0.0
2016-May-12 14:33N 29°54' W 090°05'0 0.0
2016-May-12 13:33N 29°54' W 090°05'0 0.0
2016-May-12 12:33N 29°54' W 090°05'0 0.0
2016-May-12 11:33N 29°54' W 090°05'0 0.0
2016-May-12 10:33N 29°54' W 090°05'0 0.0
2016-May-12 09:33N 29°54' W 090°05'0 0.0
2016-May-12 08:33N 29°54' W 090°05'0 0.0
2016-May-12 07:33N 29°54' W 090°05'0 0.0
2016-May-12 06:33N 29°54' W 090°05'0 0.0
2016-May-12 05:33N 29°54' W 090°05'0 0.0
2016-May-12 04:33N 29°54' W 090°05'0 0.0
2016-May-12 03:33N 29°54' W 090°05'0 0.0
2016-May-12 02:33N 29°54' W 090°05'0 0.0
2016-May-12 01:33N 29°54' W 090°05'0 0.0
2016-May-12 00:33N 29°54' W 090°05'0 0.0
2016-May-11 23:34N 29°54' W 090°05'0 0.0
2016-May-11 22:33N 29°54' W 090°05'0 0.0
2016-May-11 21:33N 29°54' W 090°05'0 0.0
2016-May-11 20:34N 29°54' W 090°05'0 0.0
2016-May-11 19:33N 29°54' W 090°05'0 0.0
2016-May-11 18:34N 29°54' W 090°05'0 0.0
2016-May-11 17:33N 29°54' W 090°05'0 0.0
2016-May-11 16:33N 29°54' W 090°05'0 0.0
2016-May-11 15:33N 29°54' W 090°05'0 0.0
2016-May-11 14:33N 29°54' W 090°05'0 0.0
2016-May-11 13:33N 29°54' W 090°05'0 0.0
2016-May-11 12:33N 29°54' W 090°05'  
Track history (hours):
 
Tides and Currents Weather Stations Pressure Air Temp Water Temp Dewpoint Dewpoint Depression Visibility Wind Speed Wind Dir Waves Ship Positions

Fourth Quarter

Owner: Kathryn Rae Towing, Inc., Destrehan, LA. More information available from US FCC via Universal Licensing System and Coast Guard Vessel Documentation Center.

Last reported at 2016-May-21 12:19 UTC. Time now 2016-May-24 23:24 UTC.
Position N 29°57' W 090°24'.

Length 21 m; draft 2.7 m.

Type: Towing. MMSI: 367524080.

Date/timePositionNaut miles runAvg speedWind from/ knotsBaromVisibWave heightAir tempDewpointWater temp
2016-May-21 12:19N 29°57' W 090°24'8 4.4
2016-May-21 10:30N 29°58' W 090°14'0 0.0
2016-May-21 09:33N 29°58' W 090°14'3 3.3
2016-May-21 08:33N 29°56' W 090°11'4 4.2
2016-May-21 07:33N 29°55' W 090°07'5 5.1
2016-May-21 06:33N 29°57' W 090°01'3 3.3
2016-May-21 05:33N 29°55' W 089°58'3 2.7
2016-May-21 04:33N 29°53' W 090°00'5 4.9
2016-May-21 03:33N 29°49' W 090°04'3 3.2
2016-May-21 02:33N 29°52' W 090°04'2 2.1
2016-May-21 01:33N 29°54' W 090°05'0 0.0
2016-May-21 00:33N 29°54' W 090°05'0 0.0
2016-May-20 23:33N 29°54' W 090°05'0 0.0
2016-May-20 22:33N 29°54' W 090°05'0 0.0
2016-May-20 21:33N 29°54' W 090°05'0 0.0
2016-May-20 20:33N 29°54' W 090°05'0 0.0
2016-May-20 19:28N 29°54' W 090°05'0 0.0
2016-May-20 18:33N 29°54' W 090°05'0 0.0
2016-May-20 17:33N 29°54' W 090°05'0 0.0
2016-May-20 15:31N 29°54' W 090°05'0 0.0
2016-May-20 14:33N 29°54' W 090°05'0 0.0
2016-May-20 13:33N 29°54' W 090°05'0 0.0
2016-May-20 12:33N 29°54' W 090°05'0 0.0
2016-May-20 11:33N 29°54' W 090°05'0 0.0
2016-May-20 10:33N 29°54' W 090°05'0 0.0
2016-May-20 09:33N 29°54' W 090°05'0 0.0
2016-May-20 08:33N 29°54' W 090°05'0 0.0
2016-May-20 07:33N 29°54' W 090°05'0 0.0
2016-May-20 06:33N 29°54' W 090°05'0 0.0
2016-May-20 05:33N 29°54' W 090°05'0 0.0
2016-May-20 03:33N 29°54' W 090°05'0 0.0
2016-May-20 02:33N 29°54' W 090°05'0 0.0
2016-May-20 01:33N 29°54' W 090°05'0 0.0
2016-May-20 00:33N 29°54' W 090°05'0 0.0
2016-May-19 23:33N 29°54' W 090°05'0 0.0
2016-May-19 22:33N 29°54' W 090°05'0 0.0
2016-May-19 21:33N 29°54' W 090°05'0 0.0
2016-May-19 20:33N 29°54' W 090°05'0 0.0
2016-May-19 19:33N 29°54' W 090°05'0 0.0
2016-May-19 18:33N 29°54' W 090°05'0 0.0
2016-May-19 17:33N 29°54' W 090°05'0 0.0
2016-May-19 16:34N 29°54' W 090°05'0 0.0
2016-May-19 15:33N 29°54' W 090°05'0 0.0
2016-May-19 14:33N 29°54' W 090°05'0 0.0
2016-May-19 13:34N 29°54' W 090°05'0 0.0
2016-May-19 12:33N 29°54' W 090°05'0 0.0
2016-May-19 11:33N 29°54' W 090°05'0 0.0
2016-May-19 10:33N 29°54' W 090°05'0 0.0
2016-May-19 09:33N 29°54' W 090°05'0 0.0
2016-May-19 08:33N 29°54' W 090°05'0 0.0
2016-May-19 07:33N 29°54' W 090°05'0 0.0
2016-May-19 06:33N 29°54' W 090°05'0 0.0
2016-May-19 05:33N 29°54' W 090°05'0 0.0
2016-May-19 04:33N 29°54' W 090°05'0 0.0
2016-May-19 03:33N 29°54' W 090°05'0 0.0
2016-May-19 02:33N 29°54' W 090°05'0 0.0
2016-May-19 01:33N 29°54' W 090°05'0 0.0
2016-May-19 00:33N 29°54' W 090°05'0 0.0
2016-May-18 23:33N 29°54' W 090°05'0 0.0
2016-May-18 22:33N 29°54' W 090°05'0 0.0
2016-May-18 21:33N 29°54' W 090°05'0 0.0
2016-May-18 20:33N 29°54' W 090°05'0 0.0
2016-May-18 19:33N 29°54' W 090°05'0 0.0
2016-May-18 18:33N 29°54' W 090°05'0 0.0
2016-May-18 17:33N 29°54' W 090°05'0 0.0
2016-May-18 16:33N 29°54' W 090°05'0 0.0
2016-May-18 15:33N 29°54' W 090°05'0 0.0
2016-May-18 14:33N 29°54' W 090°05'0 0.0
2016-May-18 13:33N 29°54' W 090°05'0 0.0
2016-May-18 12:33N 29°54' W 090°05'0 0.0
2016-May-18 11:33N 29°54' W 090°05'0 0.0
2016-May-18 10:33N 29°54' W 090°05'0 0.0
2016-May-18 09:33N 29°54' W 090°05'0 0.0
2016-May-18 08:33N 29°54' W 090°05'0 0.0
2016-May-18 07:33N 29°54' W 090°05'0 0.0
2016-May-18 06:33N 29°54' W 090°05'0 0.0
2016-May-18 05:33N 29°54' W 090°05'0 0.0
2016-May-18 04:33N 29°54' W 090°05'0 0.0
2016-May-18 03:33N 29°54' W 090°05'0 0.0
2016-May-18 02:33N 29°54' W 090°05'0 0.0
2016-May-18 01:34N 29°54' W 090°05'0 0.0
2016-May-18 00:33N 29°54' W 090°05'0 0.0
2016-May-17 23:34N 29°54' W 090°05'0 0.0
2016-May-17 22:33N 29°54' W 090°05'0 0.0
2016-May-17 21:33N 29°54' W 090°05'0 0.0
2016-May-17 20:33N 29°54' W 090°05'0 0.0
2016-May-17 19:33N 29°54' W 090°05'0 0.0
2016-May-17 18:33N 29°54' W 090°05'0 0.0
2016-May-17 17:33N 29°54' W 090°05'0 0.0
2016-May-17 16:33N 29°54' W 090°05'0 0.0
2016-May-17 15:33N 29°54' W 090°05'0 0.0
2016-May-17 14:33N 29°54' W 090°05'0 0.0
2016-May-17 13:33N 29°54' W 090°05'0 0.0
2016-May-17 12:33N 29°54' W 090°05'0 0.0
2016-May-17 11:33N 29°54' W 090°05'0 0.0
2016-May-17 10:33N 29°54' W 090°05'0 0.0
2016-May-17 09:33N 29°54' W 090°05'0 0.0
2016-May-17 08:33N 29°54' W 090°05'0 0.0
2016-May-17 07:33N 29°54' W 090°05'0 0.0
2016-May-17 06:34N 29°54' W 090°05'0 0.0
2016-May-17 05:33N 29°54' W 090°05'0 0.0
2016-May-17 04:33N 29°54' W 090°05'0 0.0
2016-May-17 03:33N 29°54' W 090°05'0 0.0
2016-May-17 02:34N 29°54' W 090°05'0 0.0
2016-May-17 01:33N 29°54' W 090°05'0 0.0
2016-May-17 00:33N 29°54' W 090°05'0 0.0
2016-May-16 23:33N 29°54' W 090°05'0 0.0
2016-May-16 22:33N 29°54' W 090°05'0 0.0
2016-May-16 21:33N 29°54' W 090°05'0 0.0
2016-May-16 20:33N 29°54' W 090°05'0 0.0
2016-May-16 19:33N 29°54' W 090°05'0 0.0
2016-May-16 18:33N 29°54' W 090°05'0 0.0
2016-May-16 17:33N 29°54' W 090°05'0 0.0
2016-May-16 16:33N 29°54' W 090°05'0 0.0
2016-May-16 15:33N 29°54' W 090°05'0 0.0
2016-May-16 14:33N 29°54' W 090°05'0 0.0
2016-May-16 13:33N 29°54' W 090°05'0 0.0
2016-May-16 12:33N 29°54' W 090°05'0 0.0
2016-May-16 11:33N 29°54' W 090°05'0 0.0
2016-May-16 10:33N 29°54' W 090°05'0 0.0
2016-May-16 09:33N 29°54' W 090°05'0 0.0
2016-May-16 08:33N 29°54' W 090°05'0 0.0
2016-May-16 07:33N 29°54' W 090°05'0 0.0
2016-May-16 06:33N 29°54' W 090°05'0 0.0
2016-May-16 05:33N 29°54' W 090°05'0 0.0
2016-May-16 04:33N 29°54' W 090°05'0 0.0
2016-May-16 03:33N 29°54' W 090°05'0 0.0
2016-May-16 02:33N 29°54' W 090°05'0 0.0
2016-May-16 01:33N 29°54' W 090°05'0 0.0
2016-May-16 00:33N 29°54' W 090°05'0 0.0
2016-May-15 23:33N 29°54' W 090°05'0 0.0
2016-May-15 22:33N 29°54' W 090°05'0 0.0
2016-May-15 21:33N 29°54' W 090°05'0 0.0
2016-May-15 20:33N 29°54' W 090°05'0 0.0
2016-May-15 19:33N 29°54' W 090°05'0 0.0
2016-May-15 18:33N 29°54' W 090°05'0 0.0
2016-May-15 17:33N 29°54' W 090°05'0 0.0
2016-May-15 16:33N 29°54' W 090°05'0 0.0
2016-May-15 15:33N 29°54' W 090°05'0 0.0
2016-May-15 14:33N 29°54' W 090°05'0 0.0
2016-May-15 13:33N 29°54' W 090°05'0 0.0
2016-May-15 12:33N 29°54' W 090°05'0 0.0
2016-May-15 11:33N 29°54' W 090°05'0 0.0
2016-May-15 10:33N 29°54' W 090°05'0 0.0
2016-May-15 09:33N 29°54' W 090°05'0 0.0
2016-May-15 08:33N 29°54' W 090°05'0 0.0
2016-May-15 07:33N 29°54' W 090°05'0 0.0
2016-May-15 06:33N 29°54' W 090°05'0 0.0
2016-May-15 05:33N 29°54' W 090°05'0 0.0
2016-May-15 04:33N 29°54' W 090°05'0 0.0
2016-May-15 03:33N 29°54' W 090°05'0 0.0
2016-May-15 02:33N 29°54' W 090°05'0 0.0
2016-May-15 01:33N 29°54' W 090°05'0 0.0
2016-May-15 00:33N 29°54' W 090°05'0 0.0
2016-May-14 23:33N 29°54' W 090°05'0 0.0
2016-May-14 22:33N 29°54' W 090°05'0 0.0
2016-May-14 21:33N 29°54' W 090°05'0 0.0
2016-May-14 20:33N 29°54' W 090°05'0 0.0
2016-May-14 19:33N 29°54' W 090°05'0 0.0
2016-May-14 18:34N 29°54' W 090°05'0 0.0
2016-May-14 17:33N 29°54' W 090°05'0 0.0
2016-May-14 16:33N 29°54' W 090°05'0 0.0
2016-May-14 15:33N 29°54' W 090°05'0 0.0
2016-May-14 14:33N 29°54' W 090°05'0 0.0
2016-May-14 13:33N 29°54' W 090°05'0 0.0
2016-May-14 12:33N 29°54' W 090°05'0 0.0
2016-May-14 11:33N 29°54' W 090°05'0 0.0
2016-May-14 10:33N 29°54' W 090°05'0 0.0
2016-May-14 09:33N 29°54' W 090°05'0 0.0
2016-May-14 08:33N 29°54' W 090°05'0 0.0
2016-May-14 07:34N 29°54' W 090°05'0 0.0
2016-May-14 06:33N 29°54' W 090°05'0 0.0
2016-May-14 05:33N 29°54' W 090°05'0 0.0
2016-May-14 04:33N 29°54' W 090°05'0 0.0
2016-May-14 03:33N 29°54' W 090°05'0 0.0
2016-May-14 02:33N 29°54' W 090°05'0 0.0
2016-May-14 01:33N 29°54' W 090°05'0 0.0
2016-May-14 00:33N 29°54' W 090°05'0 0.0
2016-May-13 23:33N 29°54' W 090°05'0 0.0
2016-May-13 22:33N 29°54' W 090°05'0 0.0
2016-May-13 21:33N 29°54' W 090°05'0 0.0
2016-May-13 20:33N 29°54' W 090°05'0 0.0
2016-May-13 19:33N 29°54' W 090°05'0 0.0
2016-May-13 18:34N 29°54' W 090°05'0 0.0
2016-May-13 17:34N 29°54' W 090°05'0 0.0
2016-May-13 16:33N 29°54' W 090°05'0 0.0
2016-May-13 15:33N 29°54' W 090°05'0 0.0
2016-May-13 14:33N 29°54' W 090°05'0 0.0
2016-May-13 13:33N 29°54' W 090°05'0 0.0
2016-May-13 12:33N 29°54' W 090°05'0 0.0
2016-May-13 11:33N 29°54' W 090°05'0 0.0
2016-May-13 10:33N 29°54' W 090°05'0 0.0
2016-May-13 09:33N 29°54' W 090°05'0 0.0
2016-May-13 08:33N 29°54' W 090°05'0 0.0
2016-May-13 07:34N 29°54' W 090°05'0 0.0
2016-May-13 06:33N 29°54' W 090°05'0 0.0
2016-May-13 05:33N 29°54' W 090°05'0 0.0
2016-May-13 04:33N 29°54' W 090°05'0 0.0
2016-May-13 03:33N 29°54' W 090°05'0 0.0
2016-May-13 02:33N 29°54' W 090°05'0 0.0
2016-May-13 01:33N 29°54' W 090°05'0 0.0
2016-May-13 00:33N 29°54' W 090°05'0 0.0
2016-May-12 23:33N 29°54' W 090°05'0 0.0
2016-May-12 22:33N 29°54' W 090°05'0 0.0
2016-May-12 21:33N 29°54' W 090°05'0 0.0
2016-May-12 20:33N 29°54' W 090°05'0 0.0
2016-May-12 19:33N 29°54' W 090°05'0 0.0
2016-May-12 18:33N 29°54' W 090°05'0 0.0
2016-May-12 17:33N 29°54' W 090°05'0 0.0
2016-May-12 16:33N 29°54' W 090°05'0 0.0
2016-May-12 15:34N 29°54' W 090°05'0 0.0
2016-May-12 14:33N 29°54' W 090°05'0 0.0
2016-May-12 13:33N 29°54' W 090°05'0 0.0
2016-May-12 12:33N 29°54' W 090°05'0 0.0
2016-May-12 11:33N 29°54' W 090°05'0 0.0
2016-May-12 10:33N 29°54' W 090°05'0 0.0
2016-May-12 09:33N 29°54' W 090°05'0 0.0
2016-May-12 08:33N 29°54' W 090°05'0 0.0
2016-May-12 07:33N 29°54' W 090°05'0 0.0
2016-May-12 06:33N 29°54' W 090°05'0 0.0
2016-May-12 05:33N 29°54' W 090°05'0 0.0
2016-May-12 04:33N 29°54' W 090°05'0 0.0
2016-May-12 03:33N 29°54' W 090°05'0 0.0
2016-May-12 02:33N 29°54' W 090°05'0 0.0
2016-May-12 01:33N 29°54' W 090°05'0 0.0
2016-May-12 00:33N 29°54' W 090°05'0 0.0
2016-May-11 23:34N 29°54' W 090°05'0 0.0
2016-May-11 22:33N 29°54' W 090°05'0 0.0
2016-May-11 21:33N 29°54' W 090°05'0 0.0
2016-May-11 20:34N 29°54' W 090°05'0 0.0
2016-May-11 19:33N 29°54' W 090°05'0 0.0
2016-May-11 18:34N 29°54' W 090°05'0 0.0
2016-May-11 17:33N 29°54' W 090°05'0 0.0
2016-May-11 16:33N 29°54' W 090°05'0 0.0
2016-May-11 15:33N 29°54' W 090°05'0 0.0
2016-May-11 14:33N 29°54' W 090°05'0 0.0
2016-May-11 13:33N 29°54' W 090°05'0 0.0
2016-May-11 12:33N 29°54' W 090°05'  

Dump ship's entire track history